Welcome to Northern Hawkes Bay. New Zealand.
PWS Header
      nz Flag



Hit Counter


W3C Valid W3C Valid logo


    Wairoa

Select any of the Stations below to visit their websites.










Historic Data from Weather Underground
Select the location of interest below. Wairoa is the default. Please have patience, this Data is slow to load in.
Northern Hawkes Bay Historical Data
Daily Summary for October 1, 2017 Units:  Metric    English   Both
« Previous Day
Next Day »
Daily Weekly Monthly Yearly Custom
  High: Low: Average:
Temperature: 16.0 °C 6.7 °C 11.3 °C
Dew Point: 11.0 °C 6.4 °C 8.9 °C
Humidity: 99% 57% 87%
Wind Speed: 15.8km/h 0.0km/h 3.3km/h
Wind Gust: 21.9km/h - -
Wind- - WSW
Pressure: 997.5 hPa 988.0 hPa -
Precipitation: 1.8 mm    
Historical Graphs
 
 
Tabular Data for October 1, 2017
Time Temperature Dew Point Pressure Wind Wind Speed Wind Gust Humidity Rainfall Rate (Hourly) solar
00:05 11.3 °C 11.0 °C 997.2 hPa NW 1.1 km/h 3.5 km/h 98% 0.0 mm 0 W/m2
00:10 11.1 °C 10.8 °C 997.2 hPa Calm   3.5 km/h 98% 0.0 mm 0 W/m2
00:15 11.1 °C 10.8 °C 997.2 hPa NNW 1.1 km/h 3.5 km/h 98% 0.0 mm 0 W/m2
00:20 11.0 °C 10.7 °C 997.5 hPa NNW 2.6 km/h 5.0 km/h 98% 0.0 mm 0 W/m2
00:26 10.9 °C 10.8 °C 996.8 hPa NW 1.1 km/h 5.0 km/h 99% 0.0 mm 0 W/m2
00:31 10.9 °C 10.8 °C 997.2 hPa NW 2.6 km/h 5.0 km/h 99% 0.0 mm 0 W/m2
00:36 10.8 °C 10.7 °C 996.8 hPa NW 2.6 km/h 5.0 km/h 99% 0.0 mm 0 W/m2
00:41 10.7 °C 10.6 °C 997.2 hPa NW 1.1 km/h 3.5 km/h 99% 0.0 mm 0 W/m2
00:46 10.7 °C 10.6 °C 996.8 hPa NW 1.1 km/h 3.5 km/h 99% 0.0 mm 0 W/m2
00:51 10.6 °C 10.4 °C 996.8 hPa Calm   3.5 km/h 99% 0.0 mm 0 W/m2
00:56 10.5 °C 10.3 °C 996.8 hPa NW 2.6 km/h 3.5 km/h 99% 0.0 mm 0 W/m2
01:01 10.5 °C 10.3 °C 996.8 hPa NW 2.6 km/h 5.0 km/h 99% 0.0 mm 0 W/m2
01:06 10.4 °C 10.3 °C 996.8 hPa NW 2.6 km/h 5.0 km/h 99% 0.0 mm 0 W/m2
01:11 10.4 °C 10.3 °C 996.8 hPa WNW 2.6 km/h 5.0 km/h 99% 0.0 mm 0 W/m2
01:16 10.3 °C 10.2 °C 996.8 hPa WNW 2.6 km/h 5.0 km/h 99% 0.0 mm 0 W/m2
01:21 10.2 °C 10.1 °C 996.8 hPa NW 2.6 km/h 5.0 km/h 99% 0.0 mm 0 W/m2
01:26 10.2 °C 10.1 °C 996.5 hPa NW 3.5 km/h 5.0 km/h 99% 0.0 mm 0 W/m2
01:31 10.1 °C 9.9 °C 996.8 hPa NW 1.1 km/h 5.0 km/h 99% 0.0 mm 0 W/m2
01:36 10.1 °C 9.9 °C 996.8 hPa Calm   5.0 km/h 99% 0.0 mm 0 W/m2
01:41 10.1 °C 9.9 °C 996.5 hPa NW 2.6 km/h 5.0 km/h 99% 0.0 mm 0 W/m2
01:46 10.1 °C 9.9 °C 996.5 hPa Calm   3.5 km/h 99% 0.0 mm 0 W/m2
01:51 9.9 °C 9.8 °C 996.5 hPa Calm   3.5 km/h 99% 0.0 mm 0 W/m2
01:56 9.7 °C 9.6 °C 996.5 hPa Calm   1.1 km/h 99% 0.0 mm 0 W/m2
02:01 9.6 °C 9.4 °C 996.5 hPa NNW 2.6 km/h 3.5 km/h 99% 0.0 mm 0 W/m2
02:06 9.6 °C 9.4 °C 996.5 hPa NW 2.6 km/h 5.0 km/h 99% 0.0 mm 0 W/m2
02:11 9.6 °C 9.4 °C 996.5 hPa NW 2.6 km/h 5.0 km/h 99% 0.0 mm 0 W/m2
02:16 9.5 °C 9.3 °C 996.2 hPa NNW 2.6 km/h 5.0 km/h 99% 0.0 mm 0 W/m2
02:21 9.4 °C 9.3 °C 996.2 hPa NW 3.5 km/h 6.1 km/h 99% 0.0 mm 0 W/m2
02:26 9.3 °C 9.2 °C 996.2 hPa NW 2.6 km/h 6.1 km/h 99% 0.0 mm 0 W/m2
02:31 9.3 °C 9.2 °C 996.2 hPa NW 2.6 km/h 6.1 km/h 99% 0.0 mm 0 W/m2
02:36 9.1 °C 8.9 °C 996.2 hPa NW 2.6 km/h 6.1 km/h 99% 0.0 mm 0 W/m2
02:41 8.9 °C 8.8 °C 996.2 hPa NW 2.6 km/h 6.1 km/h 99% 0.0 mm 0 W/m2
02:46 8.8 °C 8.7 °C 996.2 hPa NW 3.5 km/h 6.1 km/h 99% 0.0 mm 0 W/m2
02:51 8.7 °C 8.6 °C 996.2 hPa NW 3.5 km/h 6.1 km/h 99% 0.0 mm 0 W/m2
02:56 8.6 °C 8.4 °C 996.2 hPa NW 5.0 km/h 6.1 km/h 99% 0.0 mm 0 W/m2
03:01 8.6 °C 8.4 °C 995.8 hPa NNW 3.5 km/h 6.1 km/h 99% 0.0 mm 0 W/m2
03:06 8.5 °C 8.3 °C 995.8 hPa NNW 3.5 km/h 6.1 km/h 99% 0.0 mm 0 W/m2
03:11 8.6 °C 8.4 °C 995.8 hPa NNW 3.5 km/h 6.1 km/h 99% 0.0 mm 0 W/m2
03:16 8.6 °C 8.4 °C 995.8 hPa NNW 3.5 km/h 6.1 km/h 99% 0.0 mm 0 W/m2
03:21 8.6 °C 8.4 °C 995.5 hPa NW 2.6 km/h 5.0 km/h 99% 0.0 mm 0 W/m2
03:26 8.5 °C 8.3 °C 995.8 hPa NW 2.6 km/h 5.0 km/h 99% 0.0 mm 0 W/m2
03:31 8.6 °C 8.4 °C 995.5 hPa NNW 2.6 km/h 6.1 km/h 99% 0.0 mm 0 W/m2
03:36 8.7 °C 8.6 °C 995.5 hPa NNW 1.1 km/h 6.1 km/h 99% 0.0 mm 0 W/m2
03:41 8.7 °C 8.6 °C 995.5 hPa NNW 2.6 km/h 5.0 km/h 99% 0.0 mm 0 W/m2
03:46 8.6 °C 8.4 °C 995.5 hPa NW 2.6 km/h 3.5 km/h 99% 0.0 mm 0 W/m2
03:51 8.6 °C 8.4 °C 995.5 hPa NNW 2.6 km/h 3.5 km/h 99% 0.0 mm 0 W/m2
03:56 8.5 °C 8.3 °C 995.1 hPa NNW 2.6 km/h 3.5 km/h 99% 0.0 mm 0 W/m2
04:02 8.5 °C 8.3 °C 995.1 hPa NNW 1.1 km/h 3.5 km/h 99% 0.0 mm 0 W/m2
04:07 8.4 °C 8.3 °C 995.1 hPa NNW 1.1 km/h 5.0 km/h 99% 0.0 mm 0 W/m2
04:12 8.4 °C 8.3 °C 995.1 hPa North 2.6 km/h 5.0 km/h 99% 0.0 mm 0 W/m2
04:17 8.4 °C 8.3 °C 995.1 hPa North 2.6 km/h 3.5 km/h 99% 0.0 mm 0 W/m2
04:22 8.5 °C 8.3 °C 995.1 hPa North 2.6 km/h 3.5 km/h 99% 0.0 mm 0 W/m2
04:46 8.1 °C 7.9 °C 995.1 hPa NW 2.6 km/h 3.5 km/h 99% 0.0 mm 0 W/m2
04:50 8.0 °C 7.8 °C 995.1 hPa NW 3.5 km/h 5.0 km/h 99% 0.0 mm 0 W/m2
04:56 7.8 °C 7.3 °C 994.8 hPa NW 5.0 km/h 7.2 km/h 97% 0.0 mm 0 W/m2
05:01 7.8 °C 7.3 °C 994.8 hPa NW 3.5 km/h 7.2 km/h 97% 0.0 mm 0 W/m2
05:06 7.8 °C 7.3 °C 994.8 hPa NW 5.0 km/h 8.7 km/h 97% 0.0 mm 0 W/m2
05:10 7.7 °C 7.3 °C 994.8 hPa NW 3.5 km/h 8.7 km/h 97% 0.0 mm 0 W/m2
05:16 7.6 °C 7.2 °C 994.8 hPa NNW 2.6 km/h 6.1 km/h 97% 0.0 mm 0 W/m2
05:21 7.6 °C 7.2 °C 994.5 hPa North 2.6 km/h 6.1 km/h 97% 0.0 mm 0 W/m2
05:26 7.6 °C 7.2 °C 994.5 hPa North 2.6 km/h 5.0 km/h 97% 0.0 mm 0 W/m2
05:30 7.6 °C 7.2 °C 994.5 hPa NNW 3.5 km/h 7.2 km/h 97% 0.0 mm 0 W/m2
05:35 7.5 °C 7.1 °C 994.5 hPa NW 5.0 km/h 7.2 km/h 97% 0.0 mm 0 W/m2
05:41 7.4 °C 6.9 °C 994.8 hPa NW 5.0 km/h 7.2 km/h 97% 0.0 mm 0 W/m2
05:50 7.5 °C 7.1 °C 994.8 hPa NW 5.0 km/h 8.7 km/h 97% 0.0 mm 0 W/m2
05:56 7.4 °C 6.9 °C 994.8 hPa NW 2.6 km/h 8.7 km/h 97% 0.0 mm 0 W/m2
06:01 7.4 °C 6.9 °C 994.8 hPa NNW 2.6 km/h 6.1 km/h 97% 0.0 mm 0 W/m2
06:06 7.3 °C 6.8 °C 994.8 hPa North 2.6 km/h 5.0 km/h 97% 0.0 mm 0 W/m2
06:10 7.3 °C 6.8 °C 994.8 hPa North 3.5 km/h 5.0 km/h 97% 0.0 mm 0 W/m2
06:16 7.2 °C 6.8 °C 994.8 hPa NNW 2.6 km/h 5.0 km/h 97% 0.0 mm 0 W/m2
06:21 7.2 °C 6.8 °C 994.8 hPa NNW 5.0 km/h 6.1 km/h 97% 0.0 mm 0 W/m2
06:26 7.2 °C 6.8 °C 994.8 hPa NNW 1.1 km/h 6.1 km/h 97% 0.0 mm 0 W/m2
06:30 7.2 °C 6.8 °C 994.8 hPa NNW 2.6 km/h 6.1 km/h 97% 0.0 mm 0 W/m2
06:36 7.0 °C 6.6 °C 994.8 hPa NW 5.0 km/h 6.1 km/h 97% 0.0 mm 0 W/m2
06:40 7.0 °C 6.6 °C 994.8 hPa NW 5.0 km/h 7.2 km/h 97% 0.0 mm 0 W/m2
06:46 6.9 °C 6.6 °C 994.8 hPa NW 2.6 km/h 7.2 km/h 98% 0.0 mm 0 W/m2
06:50 6.8 °C 6.5 °C 994.8 hPa NNW 2.6 km/h 7.2 km/h 98% 0.0 mm 2 W/m2
06:56 6.7 °C 6.4 °C 994.8 hPa NNW 2.6 km/h 5.0 km/h 98% 0.0 mm 4 W/m2
07:00 6.7 °C 6.4 °C 994.8 hPa NNW 2.6 km/h 6.1 km/h 98% 0.0 mm 7 W/m2
07:06 6.7 °C 6.4 °C 994.8 hPa North 2.6 km/h 6.1 km/h 98% 0.0 mm 10 W/m2
07:10 6.7 °C 6.4 °C 994.5 hPa North 2.6 km/h 5.0 km/h 98% 0.0 mm 19 W/m2
07:15 7.0 °C 6.6 °C 994.5 hPa NNW 3.5 km/h 6.1 km/h 97% 0.0 mm 57 W/m2
07:20 7.3 °C 6.8 °C 994.5 hPa NW 3.5 km/h 6.1 km/h 97% 0.0 mm 71 W/m2
07:26 7.6 °C 7.2 °C 994.5 hPa NNW 3.5 km/h 7.2 km/h 97% 0.0 mm 85 W/m2
07:31 7.9 °C 7.4 °C 994.5 hPa NNW 1.1 km/h 7.2 km/h 97% 0.0 mm 96 W/m2
07:40 8.8 °C 8.7 °C 994.1 hPa NW 1.1 km/h 5.0 km/h 99% 0.0 mm 105 W/m2
07:46 8.9 °C 8.8 °C 994.1 hPa NW 5.0 km/h 7.2 km/h 99% 0.0 mm 139 W/m2
07:51 8.8 °C 8.7 °C 994.1 hPa NW 7.2 km/h 9.7 km/h 99% 0.0 mm 155 W/m2
07:55 8.9 °C 8.8 °C 994.5 hPa NW 7.2 km/h 12.2 km/h 99% 0.0 mm 169 W/m2
08:01 9.2 °C 9.1 °C 994.5 hPa NW 7.2 km/h 12.2 km/h 99% 0.0 mm 185 W/m2
08:05 9.7 °C 9.6 °C 994.5 hPa NNW 2.6 km/h 9.7 km/h 99% 0.0 mm 202 W/m2
08:11 10.1 °C 9.9 °C 995.1 hPa NNW 5.0 km/h 9.7 km/h 99% 0.0 mm 149 W/m2
08:15 10.2 °C 10.1 °C 994.8 hPa NNW 6.1 km/h 7.2 km/h 99% 0.0 mm 149 W/m2
08:21 10.0 °C 9.4 °C 994.8 hPa NNW 5.0 km/h 7.2 km/h 96% 0.0 mm 90 W/m2
08:25 9.7 °C 9.1 °C 994.8 hPa NNW 7.2 km/h 9.7 km/h 96% 0.0 mm 82 W/m2
08:31 9.6 °C 8.8 °C 994.8 hPa NW 6.1 km/h 9.7 km/h 95% 0.0 mm 85 W/m2
08:35 9.6 °C 8.8 °C 994.5 hPa NW 6.1 km/h 9.7 km/h 95% 0.0 mm 89 W/m2
08:41 9.5 °C 8.7 °C 994.5 hPa NW 7.2 km/h 12.2 km/h 95% 0.0 mm 91 W/m2
08:45 9.5 °C 8.9 °C 994.5 hPa NW 5.0 km/h 12.2 km/h 96% 0.0 mm 131 W/m2
08:50 10.0 °C 9.2 °C 994.5 hPa NW 5.0 km/h 12.2 km/h 95% 0.0 mm 248 W/m2
08:56 11.1 °C 10.2 °C 994.5 hPa NNW 6.1 km/h 9.7 km/h 94% 0.0 mm 180 W/m2
09:01 11.8 °C 10.6 °C 994.5 hPa NNW 5.0 km/h 11.1 km/h 92% 0.0 mm 190 W/m2
09:05 12.4 °C 9.8 °C 994.1 hPa NNW 5.0 km/h 14.8 km/h 84% 0.0 mm 198 W/m2
09:10 12.7 °C 9.7 °C 994.1 hPa NNW 6.1 km/h 14.8 km/h 82% 0.0 mm 223 W/m2
09:15 13.1 °C 9.6 °C 994.1 hPa NNW 5.0 km/h 9.7 km/h 79% 0.0 mm 225 W/m2
09:20 13.6 °C 10.1 °C 994.1 hPa NW 3.5 km/h 8.7 km/h 79% 0.0 mm 234 W/m2
09:26 13.9 °C 10.5 °C 994.5 hPa WNW 3.5 km/h 8.7 km/h 80% 0.0 mm 231 W/m2
09:31 14.2 °C 10.6 °C 994.1 hPa WNW 1.1 km/h 6.1 km/h 79% 0.0 mm 243 W/m2
09:35 14.9 °C 10.7 °C 994.1 hPa NNW 6.1 km/h 11.1 km/h 76% 0.0 mm 245 W/m2
09:40 14.7 °C 9.1 °C 994.1 hPa NNW 8.7 km/h 14.8 km/h 69% 0.0 mm 198 W/m2
09:45 14.6 °C 8.6 °C 994.1 hPa NNW 6.1 km/h 14.8 km/h 67% 0.0 mm 208 W/m2
09:51 14.7 °C 8.8 °C 994.1 hPa NNW 8.7 km/h 14.8 km/h 68% 0.0 mm 187 W/m2
09:55 14.6 °C 8.6 °C 994.1 hPa NNW 9.7 km/h 18.3 km/h 67% 0.0 mm 167 W/m2
10:00 14.4 °C 7.9 °C 994.1 hPa North 8.7 km/h 20.9 km/h 65% 0.0 mm 167 W/m2
10:05 14.6 °C 8.3 °C 993.8 hPa North 7.2 km/h 20.9 km/h 66% 0.0 mm 175 W/m2
10:11 14.6 °C 8.1 °C 994.1 hPa North 7.2 km/h 15.8 km/h 65% 0.0 mm 190 W/m2
10:16 14.8 °C 8.5 °C 993.8 hPa NNE 7.2 km/h 15.8 km/h 66% 0.0 mm 214 W/m2
10:21 15.1 °C 8.3 °C 993.5 hPa NE 5.0 km/h 13.4 km/h 64% 0.0 mm 353 W/m2
10:26 15.8 °C 8.8 °C 993.5 hPa NE 3.5 km/h 12.2 km/h 63% 0.0 mm 197 W/m2
10:31 15.8 °C 8.6 °C 993.5 hPa North 6.1 km/h 14.8 km/h 62% 0.0 mm 231 W/m2
10:41 15.9 °C 8.2 °C 993.5 hPa NNW 5.0 km/h 12.2 km/h 60% 0.0 mm 204 W/m2
10:46 16.0 °C 8.2 °C 993.5 hPa NW 9.7 km/h 13.4 km/h 60% 0.0 mm 307 W/m2
10:51 15.6 °C 7.6 °C 993.5 hPa NW 7.2 km/h 15.8 km/h 59% 0.0 mm 234 W/m2
10:56 15.5 °C 8.0 °C 993.5 hPa NNW 11.1 km/h 15.8 km/h 61% 0.0 mm 183 W/m2
11:01 15.3 °C 8.1 °C 993.1 hPa NNW 5.0 km/h 14.8 km/h 62% 0.0 mm 203 W/m2
11:06 15.2 °C 8.0 °C 993.1 hPa NNW 5.0 km/h 14.8 km/h 62% 0.0 mm 192 W/m2
11:11 15.3 °C 7.6 °C 993.1 hPa NNW 8.7 km/h 12.2 km/h 60% 0.0 mm 201 W/m2
11:16 15.1 °C 6.7 °C 993.1 hPa NNW 7.2 km/h 15.8 km/h 57% 0.0 mm 195 W/m2
11:21 15.1 °C 6.7 °C 993.1 hPa NW 5.0 km/h 15.8 km/h 57% 0.0 mm 182 W/m2
11:26 15.1 °C 6.7 °C 992.8 hPa NW 11.1 km/h 18.3 km/h 57% 0.0 mm 165 W/m2
11:32 15.1 °C 6.7 °C 992.8 hPa NW 7.2 km/h 18.3 km/h 57% 0.0 mm 150 W/m2
11:36 15.0 °C 6.8 °C 992.8 hPa NNW 5.0 km/h 12.2 km/h 58% 0.0 mm 148 W/m2
11:41 15.1 °C 7.2 °C 992.8 hPa North 7.2 km/h 14.8 km/h 59% 0.0 mm 178 W/m2
11:46 15.1 °C 7.2 °C 992.4 hPa North 5.0 km/h 14.8 km/h 59% 0.0 mm 215 W/m2
11:51 15.2 °C 7.2 °C 992.8 hPa North 5.0 km/h 15.8 km/h 59% 0.0 mm 189 W/m2
11:53 15.2 °C 7.2 °C 992.4 hPa North 6.1 km/h 15.8 km/h 59% 0.0 mm 181 W/m2
11:58 15.2 °C 7.0 °C 992.4 hPa NNW 3.5 km/h 15.8 km/h 58% 0.0 mm 191 W/m2
12:03 15.2 °C 7.2 °C 992.1 hPa North 3.5 km/h 14.8 km/h 59% 0.0 mm 179 W/m2
12:08 15.1 °C 6.9 °C 992.4 hPa NNE 8.7 km/h 14.8 km/h 58% 0.0 mm 176 W/m2
12:13 14.7 °C 7.7 °C 992.1 hPa NNE 15.8 km/h 21.9 km/h 63% 0.0 mm 136 W/m2
12:18 14.2 °C 7.7 °C 992.1 hPa North 12.2 km/h 21.9 km/h 65% 0.0 mm 118 W/m2
12:23 13.8 °C 7.8 °C 991.8 hPa North 6.1 km/h 21.9 km/h 67% 0.0 mm 98 W/m2
12:28 13.5 °C 7.7 °C 991.4 hPa North 2.6 km/h 12.2 km/h 68% 0.0 mm 89 W/m2
12:33 13.2 °C 7.8 °C 991.4 hPa North 3.5 km/h 11.1 km/h 70% 0.0 mm 74 W/m2
12:36 13.1 °C 7.9 °C 991.4 hPa North 2.6 km/h 9.7 km/h 71% 0.0 mm 68 W/m2
12:41 13.0 °C 7.9 °C 991.4 hPa NNE 2.6 km/h 9.7 km/h 71% 0.0 mm 77 W/m2
12:46 13.1 °C 8.2 °C 991.4 hPa NNE 1.1 km/h 8.7 km/h 72% 0.0 mm 95 W/m2
12:51 13.2 °C 8.1 °C 991.4 hPa Calm   7.2 km/h 71% 0.0 mm 97 W/m2
12:56 13.5 °C 8.6 °C 991.4 hPa Calm   7.2 km/h 72% 0.0 mm 112 W/m2
13:01 13.6 °C 8.4 °C 991.4 hPa Calm   2.6 km/h 71% 0.0 mm 115 W/m2
13:06 13.6 °C 8.4 °C 991.4 hPa NNE 3.5 km/h 5.0 km/h 71% 0.0 mm 115 W/m2
13:11 13.8 °C 8.6 °C 991.1 hPa NE 3.5 km/h 6.1 km/h 71% 0.0 mm 112 W/m2
13:32 13.9 °C 7.7 °C 990.4 hPa Calm   2.6 km/h 66% 0.0 mm 94 W/m2
13:37 14.0 °C 7.8 °C 990.7 hPa Calm   2.6 km/h 66% 0.0 mm 84 W/m2
13:42 14.1 °C 7.8 °C 990.4 hPa NE 1.1 km/h 2.6 km/h 66% 0.0 mm 83 W/m2
13:47 14.0 °C 7.6 °C 990.4 hPa ENE 1.1 km/h 6.1 km/h 65% 0.0 mm 77 W/m2
13:52 13.9 °C 7.9 °C 990.4 hPa Calm   6.1 km/h 67% 0.0 mm 92 W/m2
13:57 14.1 °C 8.1 °C 990.1 hPa Calm   2.6 km/h 67% 0.0 mm 105 W/m2
14:02 14.2 °C 7.9 °C 990.1 hPa Calm   3.5 km/h 66% 0.0 mm 106 W/m2
14:07 14.3 °C 8.1 °C 990.1 hPa NE 1.1 km/h 5.0 km/h 66% 0.0 mm 127 W/m2
14:12 14.4 °C 8.1 °C 989.7 hPa ENE 1.1 km/h 6.1 km/h 66% 0.0 mm 128 W/m2
14:17 14.6 °C 8.6 °C 989.7 hPa ENE 3.5 km/h 6.1 km/h 67% 0.0 mm 126 W/m2
14:22 14.6 °C 8.1 °C 989.7 hPa ENE 2.6 km/h 5.0 km/h 65% 0.0 mm 128 W/m2
14:27 14.4 °C 8.3 °C 989.7 hPa ENE 3.5 km/h 6.1 km/h 67% 0.0 mm 131 W/m2
14:32 14.4 °C 8.1 °C 989.4 hPa ENE 5.0 km/h 7.2 km/h 66% 0.0 mm 125 W/m2
14:37 14.3 °C 7.8 °C 989.4 hPa ENE 5.0 km/h 8.7 km/h 65% 0.0 mm 119 W/m2
14:42 14.1 °C 7.6 °C 989.4 hPa ENE 3.5 km/h 8.7 km/h 65% 0.0 mm 107 W/m2
14:47 14.1 °C 7.6 °C 989.7 hPa ENE 5.0 km/h 8.7 km/h 65% 0.0 mm 91 W/m2
14:52 14.0 °C 7.8 °C 989.1 hPa ENE 3.5 km/h 8.7 km/h 66% 0.0 mm 87 W/m2
14:57 14.0 °C 8.0 °C 989.4 hPa East 2.6 km/h 7.2 km/h 67% 0.0 mm 81 W/m2
15:02 13.9 °C 8.1 °C 989.4 hPa East 3.5 km/h 6.1 km/h 68% 0.0 mm 68 W/m2
15:07 13.8 °C 8.2 °C 989.1 hPa East 2.6 km/h 8.7 km/h 69% 0.0 mm 60 W/m2
15:12 13.8 °C 8.2 °C 989.1 hPa East 2.6 km/h 8.7 km/h 69% 0.0 mm 64 W/m2
15:17 13.8 °C 8.6 °C 989.1 hPa ENE 6.1 km/h 11.1 km/h 71% 0.0 mm 67 W/m2
15:22 13.5 °C 8.8 °C 989.1 hPa ENE 2.6 km/h 11.1 km/h 73% 0.0 mm 66 W/m2
15:25 13.5 °C 9.2 °C 989.1 hPa ENE 6.1 km/h 11.1 km/h 75% 0.0 mm 71 W/m2
15:30 13.5 °C 9.2 °C 988.7 hPa ENE 6.1 km/h 11.1 km/h 75% 0.0 mm 82 W/m2
15:35 13.4 °C 9.1 °C 988.7 hPa NE 6.1 km/h 11.1 km/h 75% 0.0 mm 91 W/m2
15:40 13.4 °C 9.1 °C 988.7 hPa NE 6.1 km/h 9.7 km/h 75% 0.0 mm 105 W/m2
15:45 13.4 °C 9.1 °C 988.7 hPa NNE 5.0 km/h 9.7 km/h 75% 0.0 mm 108 W/m2
15:50 13.4 °C 9.3 °C 988.7 hPa NNE 5.0 km/h 9.7 km/h 76% 0.0 mm 108 W/m2
15:55 13.4 °C 9.3 °C 988.4 hPa NE 1.1 km/h 9.7 km/h 76% 0.0 mm 119 W/m2
16:00 13.5 °C 9.6 °C 988.4 hPa NE 2.6 km/h 7.2 km/h 77% 0.0 mm 136 W/m2
16:05 13.6 °C 9.7 °C 988.4 hPa NE 3.5 km/h 6.1 km/h 77% 0.0 mm 141 W/m2
16:11 13.6 °C 9.7 °C 988.4 hPa NE 2.6 km/h 8.7 km/h 77% 0.0 mm 119 W/m2
16:16 13.6 °C 9.4 °C 988.4 hPa NE 2.6 km/h 8.7 km/h 76% 0.0 mm 111 W/m2
16:21 13.8 °C 9.8 °C 988.4 hPa NE 2.6 km/h 6.1 km/h 77% 0.0 mm 112 W/m2
16:26 13.6 °C 9.4 °C 988.0 hPa NE 2.6 km/h 8.7 km/h 76% 0.0 mm 102 W/m2
16:31 13.6 °C 9.4 °C 988.4 hPa NNE 1.1 km/h 8.7 km/h 76% 0.0 mm 99 W/m2
16:36 13.6 °C 9.7 °C 988.0 hPa Calm   6.1 km/h 77% 0.0 mm 118 W/m2
16:41 13.8 °C 9.8 °C 988.0 hPa NNE 2.6 km/h 3.5 km/h 77% 0.0 mm 93 W/m2
16:46 13.6 °C 9.4 °C 988.0 hPa North 1.1 km/h 5.0 km/h 76% 0.3 mm 74 W/m2
16:51 13.4 °C 9.4 °C 988.0 hPa Calm   6.1 km/h 77% 0.3 mm 73 W/m2
16:56 13.3 °C 9.3 °C 988.4 hPa Calm   6.1 km/h 77% 0.3 mm 95 W/m2
17:01 13.3 °C 9.6 °C 988.4 hPa North 1.1 km/h 6.1 km/h 78% 0.3 mm 94 W/m2
17:06 13.4 °C 9.7 °C 988.4 hPa Calm   5.0 km/h 78% 0.3 mm 78 W/m2
17:11 13.4 °C 9.7 °C 988.0 hPa North 1.1 km/h 3.5 km/h 78% 0.3 mm 58 W/m2
17:16 13.3 °C 9.3 °C 988.4 hPa Calm   3.5 km/h 77% 0.3 mm 47 W/m2
17:21 13.3 °C 9.6 °C 988.4 hPa NW 1.1 km/h 3.5 km/h 78% 0.3 mm 42 W/m2
17:26 13.1 °C 9.3 °C 988.4 hPa NW 1.1 km/h 3.5 km/h 78% 0.3 mm 36 W/m2
17:31 13.0 °C 9.3 °C 988.4 hPa Calm   3.5 km/h 78% 0.3 mm 36 W/m2
17:36 13.0 °C 9.4 °C 988.4 hPa Calm   3.5 km/h 79% 0.3 mm 46 W/m2
17:41 13.0 °C 9.6 °C 988.4 hPa Calm     80% 0.3 mm 45 W/m2
17:46 12.9 °C 9.7 °C 988.7 hPa Calm     81% 0.0 mm 36 W/m2
17:51 12.8 °C 9.8 °C 988.4 hPa Calm     82% 0.0 mm 33 W/m2
17:56 12.7 °C 9.7 °C 988.4 hPa Calm     82% 0.0 mm 29 W/m2
18:02 12.6 °C 9.8 °C 988.4 hPa Calm     83% 0.0 mm 26 W/m2
18:07 12.6 °C 9.9 °C 988.7 hPa Calm   1.1 km/h 84% 0.0 mm 22 W/m2
18:12 12.5 °C 10.1 °C 988.7 hPa Calm   1.1 km/h 85% 0.0 mm 18 W/m2
18:17 12.4 °C 10.1 °C 988.7 hPa Calm   1.1 km/h 86% 0.0 mm 12 W/m2
18:22 12.3 °C 10.1 °C 988.7 hPa Calm     86% 0.3 mm 10 W/m2
18:27 12.2 °C 10.3 °C 989.1 hPa Calm     88% 0.3 mm 8 W/m2
18:32 12.1 °C 10.2 °C 989.1 hPa Calm     88% 0.3 mm 5 W/m2
18:37 11.9 °C 10.3 °C 989.1 hPa Calm     90% 0.3 mm 3 W/m2
18:42 11.8 °C 10.4 °C 989.1 hPa Calm     91% 0.3 mm 2 W/m2
18:47 11.8 °C 10.6 °C 989.1 hPa Calm   1.1 km/h 92% 0.3 mm 2 W/m2
18:52 11.7 °C 10.6 °C 989.1 hPa Calm   1.1 km/h 93% 0.3 mm 0 W/m2
18:57 11.5 °C 10.4 °C 989.4 hPa Calm   1.1 km/h 93% 0.3 mm 0 W/m2
19:02 11.4 °C 10.4 °C 989.4 hPa Calm   1.1 km/h 94% 0.3 mm 0 W/m2
19:08 11.3 °C 10.4 °C 989.4 hPa Calm   1.1 km/h 94% 0.3 mm 0 W/m2
19:13 11.3 °C 10.4 °C 989.7 hPa Calm     94% 0.3 mm 0 W/m2
19:18 11.3 °C 10.4 °C 989.7 hPa Calm   1.1 km/h 94% 0.3 mm 0 W/m2
19:23 11.3 °C 10.6 °C 989.7 hPa Calm   1.1 km/h 95% 0.0 mm 0 W/m2
19:28 11.2 °C 10.4 °C 990.1 hPa Calm   1.1 km/h 95% 0.0 mm 0 W/m2
19:33 11.1 °C 10.3 °C 990.1 hPa WSW 1.1 km/h 2.6 km/h 95% 0.0 mm 0 W/m2
19:38 11.1 °C 10.5 °C 990.1 hPa West 2.6 km/h 5.0 km/h 96% 0.0 mm 0 W/m2
19:43 10.9 °C 10.4 °C 990.4 hPa WSW 2.6 km/h 8.7 km/h 97% 0.3 mm 0 W/m2
19:48 10.9 °C 10.4 °C 990.4 hPa WSW 5.0 km/h 8.7 km/h 97% 0.5 mm 0 W/m2
19:53 10.8 °C 10.5 °C 990.7 hPa WSW 3.5 km/h 7.2 km/h 98% 0.5 mm 0 W/m2
19:58 10.7 °C 10.4 °C 990.7 hPa West 5.0 km/h 7.2 km/h 98% 0.5 mm 0 W/m2
20:03 10.7 °C 10.4 °C 990.7 hPa WSW 5.0 km/h 9.7 km/h 98% 1.0 mm 0 W/m2
20:08 10.7 °C 10.6 °C 991.1 hPa WSW 5.0 km/h 13.4 km/h 99% 1.0 mm 0 W/m2
20:13 10.6 °C 10.4 °C 991.1 hPa West 6.1 km/h 13.4 km/h 99% 1.0 mm 0 W/m2
20:18 10.6 °C 10.4 °C 991.1 hPa West 1.1 km/h 11.1 km/h 99% 1.0 mm 0 W/m2
20:23 10.6 °C 10.4 °C 991.4 hPa WSW 2.6 km/h 9.7 km/h 99% 1.0 mm 0 W/m2
20:28 10.5 °C 10.3 °C 991.4 hPa WSW 2.6 km/h 11.1 km/h 99% 1.0 mm 0 W/m2
20:33 10.5 °C 10.3 °C 991.4 hPa West 1.1 km/h 11.1 km/h 99% 1.0 mm 0 W/m2
20:38 10.4 °C 10.3 °C 991.4 hPa West 2.6 km/h 9.7 km/h 99% 0.5 mm 0 W/m2
21:12 10.5 °C 10.3 °C 992.4 hPa West 3.5 km/h 15.8 km/h 99% 0.0 mm 0 W/m2
21:17 10.4 °C 10.3 °C 992.1 hPa West 2.6 km/h 11.1 km/h 99% 0.0 mm 0 W/m2
21:22 10.4 °C 10.1 °C 992.1 hPa WSW 1.1 km/h 9.7 km/h 98% 0.0 mm 0 W/m2
21:27 10.3 °C 10.0 °C 992.4 hPa WSW 6.1 km/h 11.1 km/h 98% 0.0 mm 0 W/m2
21:32 10.4 °C 9.9 °C 992.4 hPa WSW 3.5 km/h 13.4 km/h 97% 0.0 mm 0 W/m2
21:37 10.4 °C 9.8 °C 992.4 hPa West 6.1 km/h 13.4 km/h 96% 0.0 mm 0 W/m2
21:42 10.4 °C 9.8 °C 992.4 hPa West 3.5 km/h 9.7 km/h 96% 0.3 mm 0 W/m2
21:47 10.3 °C 9.7 °C 992.4 hPa West 1.1 km/h 9.7 km/h 96% 0.3 mm 0 W/m2
21:52 10.3 °C 9.6 °C 992.4 hPa West 1.1 km/h 7.2 km/h 95% 0.3 mm 0 W/m2
21:57 10.3 °C 9.6 °C 992.8 hPa WNW 1.1 km/h 5.0 km/h 95% 0.3 mm 0 W/m2
22:02 10.3 °C 9.6 °C 992.4 hPa NW 2.6 km/h 6.1 km/h 95% 0.3 mm 0 W/m2
22:07 10.3 °C 9.6 °C 992.4 hPa NW 3.5 km/h 7.2 km/h 95% 0.3 mm 0 W/m2
22:12 10.3 °C 9.7 °C 992.4 hPa NW 3.5 km/h 7.2 km/h 96% 0.3 mm 0 W/m2
22:17 10.2 °C 9.6 °C 992.4 hPa NNW 5.0 km/h 7.2 km/h 96% 0.3 mm 0 W/m2
22:22 10.1 °C 9.7 °C 992.8 hPa NW 3.5 km/h 8.7 km/h 97% 0.3 mm 0 W/m2
22:27 10.1 °C 9.7 °C 992.8 hPa NW 6.1 km/h 8.7 km/h 97% 0.3 mm 0 W/m2
22:32 10.0 °C 9.7 °C 992.8 hPa NNW 5.0 km/h 8.7 km/h 98% 0.3 mm 0 W/m2
22:50 9.9 °C 9.8 °C 992.8 hPa North 3.5 km/h 6.1 km/h 99% 0.0 mm 0 W/m2
22:55 9.9 °C 9.8 °C 993.1 hPa NNW 3.5 km/h 9.7 km/h 99% 0.0 mm 0 W/m2
23:00 9.9 °C 9.8 °C 993.1 hPa NNW 3.5 km/h 9.7 km/h 99% 0.0 mm 0 W/m2
23:05 9.9 °C 9.8 °C 993.1 hPa NNW 2.6 km/h 8.7 km/h 99% 0.0 mm 0 W/m2
23:10 9.9 °C 9.8 °C 993.1 hPa NW 1.1 km/h 7.2 km/h 99% 0.0 mm 0 W/m2
23:15 9.8 °C 9.7 °C 993.1 hPa NNW 5.0 km/h 6.1 km/h 99% 0.0 mm 0 W/m2
23:20 9.7 °C 9.6 °C 993.1 hPa NNW 5.0 km/h 8.7 km/h 99% 0.0 mm 0 W/m2
23:25 9.7 °C 9.6 °C 993.1 hPa NW 3.5 km/h 8.7 km/h 99% 0.0 mm 0 W/m2
23:30 9.7 °C 9.6 °C 993.1 hPa NNW 3.5 km/h 7.2 km/h 99% 0.0 mm 0 W/m2
23:35 9.6 °C 9.4 °C 993.1 hPa NNW 3.5 km/h 6.1 km/h 99% 0.0 mm 0 W/m2
23:40 9.5 °C 9.3 °C 993.1 hPa NNW 2.6 km/h 6.1 km/h 99% 0.0 mm 0 W/m2
23:45 9.5 °C 9.3 °C 993.1 hPa NNW 3.5 km/h 6.1 km/h 99% 0.0 mm 0 W/m2
23:50 9.3 °C 9.2 °C 993.1 hPa North 3.5 km/h 7.2 km/h 99% 0.0 mm 0 W/m2
23:55 9.2 °C 9.1 °C 993.5 hPa NNW 2.6 km/h 7.2 km/h 99% 0.0 mm 0 W/m2
Northern Hawkes Bay. New Zealand Historic Data
Compliments of Weather Underground - 2 mb